sensor_id;sensor_type;location;lat;lon;timestamp;P1;durP1;ratioP1;P2;durP2;ratioP2
73264;SDS011;61493;51.008;14.088;2022-08-19T00:00:17;14.90;;;11.30;;
73264;SDS011;61493;51.008;14.088;2022-08-19T00:02:43;15.48;;;12.23;;
73264;SDS011;61493;51.008;14.088;2022-08-19T00:05:09;16.27;;;12.10;;
73264;SDS011;61493;51.008;14.088;2022-08-19T00:07:35;13.13;;;10.35;;
73264;SDS011;61493;51.008;14.088;2022-08-19T00:10:02;14.50;;;11.48;;
73264;SDS011;61493;51.008;14.088;2022-08-19T00:12:28;16.73;;;10.93;;
73264;SDS011;61493;51.008;14.088;2022-08-19T00:14:54;15.20;;;11.35;;
73264;SDS011;61493;51.008;14.088;2022-08-19T00:17:20;14.98;;;10.52;;
73264;SDS011;61493;51.008;14.088;2022-08-19T00:19:45;14.73;;;11.38;;
73264;SDS011;61493;51.008;14.088;2022-08-19T00:22:13;14.43;;;10.25;;
73264;SDS011;61493;51.008;14.088;2022-08-19T00:24:39;15.05;;;11.65;;
73264;SDS011;61493;51.008;14.088;2022-08-19T00:27:06;15.45;;;11.50;;
73264;SDS011;61493;51.008;14.088;2022-08-19T00:29:31;15.65;;;10.38;;
73264;SDS011;61493;51.008;14.088;2022-08-19T00:31:57;14.60;;;10.75;;
73264;SDS011;61493;51.008;14.088;2022-08-19T00:34:23;12.55;;;10.02;;
73264;SDS011;61493;51.008;14.088;2022-08-19T00:36:51;15.40;;;11.23;;
73264;SDS011;61493;51.008;14.088;2022-08-19T00:39:16;15.35;;;11.70;;
73264;SDS011;61493;51.008;14.088;2022-08-19T00:41:42;15.98;;;11.38;;
73264;SDS011;61493;51.008;14.088;2022-08-19T00:44:14;17.10;;;11.40;;
73264;SDS011;61493;51.008;14.088;2022-08-19T00:46:43;16.58;;;12.20;;
73264;SDS011;61493;51.008;14.088;2022-08-19T00:49:11;14.27;;;10.93;;
73264;SDS011;61493;51.008;14.088;2022-08-19T00:51:42;19.98;;;12.43;;
73264;SDS011;61493;51.008;14.088;2022-08-19T00:54:11;15.73;;;11.77;;
73264;SDS011;61493;51.008;14.088;2022-08-19T00:56:37;15.43;;;11.95;;
73264;SDS011;61493;51.008;14.088;2022-08-19T00:59:03;16.77;;;12.73;;
73264;SDS011;61493;51.008;14.088;2022-08-19T01:01:33;16.77;;;13.25;;
73264;SDS011;61493;51.008;14.088;2022-08-19T01:04:03;17.42;;;11.73;;
73264;SDS011;61493;51.008;14.088;2022-08-19T01:06:29;17.73;;;13.38;;
73264;SDS011;61493;51.008;14.088;2022-08-19T01:08:57;17.20;;;12.55;;
73264;SDS011;61493;51.008;14.088;2022-08-19T01:11:23;21.02;;;12.75;;
73264;SDS011;61493;51.008;14.088;2022-08-19T01:13:49;17.55;;;11.68;;
73264;SDS011;61493;51.008;14.088;2022-08-19T01:16:18;16.15;;;12.27;;
73264;SDS011;61493;51.008;14.088;2022-08-19T01:18:45;17.45;;;13.23;;
73264;SDS011;61493;51.008;14.088;2022-08-19T01:21:19;17.98;;;13.75;;
73264;SDS011;61493;51.008;14.088;2022-08-19T01:23:49;17.17;;;13.15;;
73264;SDS011;61493;51.008;14.088;2022-08-19T01:26:16;17.05;;;13.30;;
73264;SDS011;61493;51.008;14.088;2022-08-19T01:29:20;18.27;;;13.07;;
73264;SDS011;61493;51.008;14.088;2022-08-19T01:31:45;18.83;;;13.13;;
73264;SDS011;61493;51.008;14.088;2022-08-19T01:34:11;22.60;;;15.15;;
73264;SDS011;61493;51.008;14.088;2022-08-19T01:36:41;18.70;;;13.93;;
73264;SDS011;61493;51.008;14.088;2022-08-19T01:39:11;18.10;;;14.20;;
73264;SDS011;61493;51.008;14.088;2022-08-19T01:41:38;19.48;;;13.57;;
73264;SDS011;61493;51.008;14.088;2022-08-19T01:44:03;18.23;;;13.68;;
73264;SDS011;61493;51.008;14.088;2022-08-19T01:46:31;18.38;;;13.75;;
73264;SDS011;61493;51.008;14.088;2022-08-19T01:48:57;21.33;;;15.02;;
73264;SDS011;61493;51.008;14.088;2022-08-19T01:51:22;19.92;;;15.32;;
73264;SDS011;61493;51.008;14.088;2022-08-19T01:53:48;17.52;;;14.70;;
73264;SDS011;61493;51.008;14.088;2022-08-19T01:56:14;20.58;;;13.70;;
73264;SDS011;61493;51.008;14.088;2022-08-19T01:58:41;19.42;;;14.40;;
73264;SDS011;61493;51.008;14.088;2022-08-19T02:01:12;18.33;;;14.32;;
73264;SDS011;61493;51.008;14.088;2022-08-19T02:03:38;18.92;;;13.70;;
73264;SDS011;61493;51.008;14.088;2022-08-19T02:06:04;18.63;;;14.57;;
73264;SDS011;61493;51.008;14.088;2022-08-19T02:08:30;21.58;;;15.07;;
73264;SDS011;61493;51.008;14.088;2022-08-19T02:10:57;23.00;;;15.25;;
73264;SDS011;61493;51.008;14.088;2022-08-19T02:13:23;18.77;;;14.52;;
73264;SDS011;61493;51.008;14.088;2022-08-19T02:15:49;22.58;;;14.57;;
73264;SDS011;61493;51.008;14.088;2022-08-19T02:18:15;18.55;;;13.82;;
73264;SDS011;61493;51.008;14.088;2022-08-19T02:20:41;17.38;;;14.23;;
73264;SDS011;61493;51.008;14.088;2022-08-19T02:23:08;19.38;;;14.55;;
73264;SDS011;61493;51.008;14.088;2022-08-19T02:25:35;19.98;;;14.13;;
73264;SDS011;61493;51.008;14.088;2022-08-19T02:28:00;17.67;;;13.45;;
73264;SDS011;61493;51.008;14.088;2022-08-19T02:30:26;20.75;;;15.82;;
73264;SDS011;61493;51.008;14.088;2022-08-19T02:32:51;19.65;;;13.80;;
73264;SDS011;61493;51.008;14.088;2022-08-19T02:35:19;18.50;;;13.80;;
73264;SDS011;61493;51.008;14.088;2022-08-19T02:37:44;19.15;;;15.88;;
73264;SDS011;61493;51.008;14.088;2022-08-19T02:40:29;18.48;;;14.35;;
73264;SDS011;61493;51.008;14.088;2022-08-19T02:42:58;19.15;;;15.75;;
73264;SDS011;61493;51.008;14.088;2022-08-19T02:45:23;18.38;;;14.75;;
73264;SDS011;61493;51.008;14.088;2022-08-19T02:47:49;21.05;;;15.43;;
73264;SDS011;61493;51.008;14.088;2022-08-19T02:50:14;19.48;;;14.65;;
73264;SDS011;61493;51.008;14.088;2022-08-19T02:52:39;26.38;;;16.35;;
73264;SDS011;61493;51.008;14.088;2022-08-19T02:55:05;18.17;;;14.43;;
73264;SDS011;61493;51.008;14.088;2022-08-19T02:57:31;25.13;;;15.35;;
73264;SDS011;61493;51.008;14.088;2022-08-19T02:59:57;18.88;;;14.68;;
73264;SDS011;61493;51.008;14.088;2022-08-19T03:02:22;21.70;;;16.63;;
73264;SDS011;61493;51.008;14.088;2022-08-19T03:04:48;21.67;;;15.55;;
73264;SDS011;61493;51.008;14.088;2022-08-19T03:07:13;19.88;;;15.35;;
73264;SDS011;61493;51.008;14.088;2022-08-19T03:09:39;18.65;;;14.23;;
73264;SDS011;61493;51.008;14.088;2022-08-19T03:12:05;19.60;;;15.48;;
73264;SDS011;61493;51.008;14.088;2022-08-19T03:14:31;20.42;;;15.18;;
73264;SDS011;61493;51.008;14.088;2022-08-19T03:16:58;21.90;;;15.27;;
73264;SDS011;61493;51.008;14.088;2022-08-19T03:19:24;21.25;;;15.52;;
73264;SDS011;61493;51.008;14.088;2022-08-19T03:21:49;22.15;;;15.93;;
73264;SDS011;61493;51.008;14.088;2022-08-19T03:24:15;19.63;;;15.70;;
73264;SDS011;61493;51.008;14.088;2022-08-19T03:26:43;21.45;;;16.20;;
73264;SDS011;61493;51.008;14.088;2022-08-19T03:29:10;20.50;;;16.20;;
73264;SDS011;61493;51.008;14.088;2022-08-19T03:31:36;20.92;;;16.25;;
73264;SDS011;61493;51.008;14.088;2022-08-19T03:34:03;23.83;;;17.60;;
73264;SDS011;61493;51.008;14.088;2022-08-19T03:36:29;23.08;;;16.83;;
73264;SDS011;61493;51.008;14.088;2022-08-19T03:38:56;22.15;;;15.38;;
73264;SDS011;61493;51.008;14.088;2022-08-19T03:41:26;18.92;;;15.00;;
73264;SDS011;61493;51.008;14.088;2022-08-19T03:43:54;23.60;;;19.50;;
73264;SDS011;61493;51.008;14.088;2022-08-19T03:46:20;21.58;;;17.17;;
73264;SDS011;61493;51.008;14.088;2022-08-19T03:48:48;19.27;;;16.02;;
73264;SDS011;61493;51.008;14.088;2022-08-19T03:51:29;24.80;;;20.60;;
73264;SDS011;61493;51.008;14.088;2022-08-19T03:53:58;24.10;;;18.92;;
73264;SDS011;61493;51.008;14.088;2022-08-19T03:56:25;22.63;;;17.73;;
73264;SDS011;61493;51.008;14.088;2022-08-19T03:58:51;20.80;;;16.05;;
73264;SDS011;61493;51.008;14.088;2022-08-19T04:01:18;22.65;;;16.63;;
73264;SDS011;61493;51.008;14.088;2022-08-19T04:03:45;24.80;;;19.48;;
73264;SDS011;61493;51.008;14.088;2022-08-19T04:06:16;26.85;;;19.27;;
73264;SDS011;61493;51.008;14.088;2022-08-19T04:08:44;32.30;;;22.98;;
73264;SDS011;61493;51.008;14.088;2022-08-19T04:11:16;31.35;;;20.92;;
73264;SDS011;61493;51.008;14.088;2022-08-19T04:13:47;26.73;;;19.35;;
73264;SDS011;61493;51.008;14.088;2022-08-19T04:16:17;24.77;;;17.55;;
73264;SDS011;61493;51.008;14.088;2022-08-19T04:18:44;26.02;;;17.90;;
73264;SDS011;61493;51.008;14.088;2022-08-19T04:21:14;21.48;;;16.40;;
73264;SDS011;61493;51.008;14.088;2022-08-19T04:23:41;23.65;;;17.33;;
73264;SDS011;61493;51.008;14.088;2022-08-19T04:26:07;24.23;;;17.73;;
73264;SDS011;61493;51.008;14.088;2022-08-19T04:28:32;23.70;;;16.65;;
73264;SDS011;61493;51.008;14.088;2022-08-19T04:30:57;25.58;;;17.67;;
73264;SDS011;61493;51.008;14.088;2022-08-19T04:33:25;22.95;;;17.15;;
73264;SDS011;61493;51.008;14.088;2022-08-19T04:35:53;25.88;;;18.33;;
73264;SDS011;61493;51.008;14.088;2022-08-19T04:38:20;21.85;;;16.30;;
73264;SDS011;61493;51.008;14.088;2022-08-19T04:40:50;21.70;;;16.60;;
73264;SDS011;61493;51.008;14.088;2022-08-19T04:43:35;24.27;;;18.35;;
73264;SDS011;61493;51.008;14.088;2022-08-19T04:46:11;25.20;;;18.65;;
73264;SDS011;61493;51.008;14.088;2022-08-19T04:48:37;25.08;;;17.83;;
73264;SDS011;61493;51.008;14.088;2022-08-19T04:51:08;25.52;;;17.95;;
73264;SDS011;61493;51.008;14.088;2022-08-19T04:53:35;27.00;;;18.83;;
73264;SDS011;61493;51.008;14.088;2022-08-19T04:56:13;25.65;;;18.85;;
73264;SDS011;61493;51.008;14.088;2022-08-19T04:58:40;28.02;;;19.23;;
73264;SDS011;61493;51.008;14.088;2022-08-19T05:01:08;25.05;;;18.75;;
73264;SDS011;61493;51.008;14.088;2022-08-19T05:03:37;26.65;;;19.83;;
73264;SDS011;61493;51.008;14.088;2022-08-19T05:06:10;29.20;;;19.63;;
73264;SDS011;61493;51.008;14.088;2022-08-19T05:08:38;28.48;;;20.33;;
73264;SDS011;61493;51.008;14.088;2022-08-19T05:11:12;27.30;;;20.45;;
73264;SDS011;61493;51.008;14.088;2022-08-19T05:13:39;30.02;;;21.17;;
73264;SDS011;61493;51.008;14.088;2022-08-19T05:16:08;26.98;;;19.13;;
73264;SDS011;61493;51.008;14.088;2022-08-19T05:18:34;27.75;;;18.45;;
73264;SDS011;61493;51.008;14.088;2022-08-19T05:21:20;28.00;;;20.02;;
73264;SDS011;61493;51.008;14.088;2022-08-19T05:24:05;28.38;;;20.90;;
73264;SDS011;61493;51.008;14.088;2022-08-19T05:26:42;28.40;;;20.02;;
73264;SDS011;61493;51.008;14.088;2022-08-19T05:29:11;30.83;;;21.23;;
73264;SDS011;61493;51.008;14.088;2022-08-19T05:31:37;29.65;;;20.65;;
73264;SDS011;61493;51.008;14.088;2022-08-19T05:34:03;33.78;;;23.50;;
73264;SDS011;61493;51.008;14.088;2022-08-19T05:36:32;31.02;;;20.52;;
73264;SDS011;61493;51.008;14.088;2022-08-19T05:39:00;34.13;;;23.38;;
73264;SDS011;61493;51.008;14.088;2022-08-19T05:41:26;33.78;;;22.58;;
73264;SDS011;61493;51.008;14.088;2022-08-19T05:43:54;32.67;;;22.00;;
73264;SDS011;61493;51.008;14.088;2022-08-19T05:46:23;31.17;;;22.38;;
73264;SDS011;61493;51.008;14.088;2022-08-19T05:48:48;28.10;;;21.00;;
73264;SDS011;61493;51.008;14.088;2022-08-19T05:51:14;27.02;;;19.33;;
73264;SDS011;61493;51.008;14.088;2022-08-19T05:53:40;29.38;;;20.77;;
73264;SDS011;61493;51.008;14.088;2022-08-19T05:56:07;36.65;;;21.20;;
73264;SDS011;61493;51.008;14.088;2022-08-19T05:58:35;27.10;;;19.38;;
73264;SDS011;61493;51.008;14.088;2022-08-19T06:01:01;27.85;;;20.05;;
73264;SDS011;61493;51.008;14.088;2022-08-19T06:03:31;26.80;;;19.63;;
73264;SDS011;61493;51.008;14.088;2022-08-19T06:05:58;28.50;;;19.27;;
73264;SDS011;61493;51.008;14.088;2022-08-19T06:08:24;27.80;;;20.13;;
73264;SDS011;61493;51.008;14.088;2022-08-19T06:10:50;28.85;;;19.70;;
73264;SDS011;61493;51.008;14.088;2022-08-19T06:13:15;29.15;;;20.42;;
73264;SDS011;61493;51.008;14.088;2022-08-19T06:15:40;30.75;;;20.40;;
73264;SDS011;61493;51.008;14.088;2022-08-19T06:18:08;29.52;;;17.83;;
73264;SDS011;61493;51.008;14.088;2022-08-19T06:20:34;24.15;;;17.90;;
73264;SDS011;61493;51.008;14.088;2022-08-19T06:22:59;28.40;;;19.20;;
73264;SDS011;61493;51.008;14.088;2022-08-19T06:25:24;30.38;;;19.55;;
73264;SDS011;61493;51.008;14.088;2022-08-19T06:27:50;27.30;;;20.65;;
73264;SDS011;61493;51.008;14.088;2022-08-19T06:30:15;30.95;;;20.50;;
73264;SDS011;61493;51.008;14.088;2022-08-19T06:32:41;26.10;;;18.55;;
73264;SDS011;61493;51.008;14.088;2022-08-19T06:35:06;26.05;;;18.13;;
73264;SDS011;61493;51.008;14.088;2022-08-19T06:37:32;26.98;;;18.00;;
73264;SDS011;61493;51.008;14.088;2022-08-19T06:39:58;29.23;;;19.63;;
73264;SDS011;61493;51.008;14.088;2022-08-19T06:42:23;32.17;;;20.70;;
73264;SDS011;61493;51.008;14.088;2022-08-19T06:44:48;28.40;;;19.13;;
73264;SDS011;61493;51.008;14.088;2022-08-19T06:47:15;29.85;;;21.83;;
73264;SDS011;61493;51.008;14.088;2022-08-19T06:49:43;30.35;;;19.88;;
73264;SDS011;61493;51.008;14.088;2022-08-19T06:52:09;28.52;;;19.02;;
73264;SDS011;61493;51.008;14.088;2022-08-19T06:54:37;27.50;;;20.20;;
73264;SDS011;61493;51.008;14.088;2022-08-19T06:57:02;25.55;;;17.70;;
73264;SDS011;61493;51.008;14.088;2022-08-19T06:59:29;24.63;;;16.77;;
73264;SDS011;61493;51.008;14.088;2022-08-19T07:01:57;26.85;;;18.00;;
73264;SDS011;61493;51.008;14.088;2022-08-19T07:04:25;21.25;;;16.48;;
73264;SDS011;61493;51.008;14.088;2022-08-19T07:06:58;24.20;;;18.20;;
73264;SDS011;61493;51.008;14.088;2022-08-19T07:09:25;21.88;;;16.13;;
73264;SDS011;61493;51.008;14.088;2022-08-19T07:11:51;22.35;;;17.05;;
73264;SDS011;61493;51.008;14.088;2022-08-19T07:14:18;20.48;;;14.98;;
73264;SDS011;61493;51.008;14.088;2022-08-19T07:16:47;22.90;;;15.05;;
73264;SDS011;61493;51.008;14.088;2022-08-19T07:19:15;22.33;;;15.30;;
73264;SDS011;61493;51.008;14.088;2022-08-19T07:21:42;19.23;;;14.65;;
73264;SDS011;61493;51.008;14.088;2022-08-19T07:24:10;24.35;;;15.88;;
73264;SDS011;61493;51.008;14.088;2022-08-19T07:26:40;18.95;;;14.68;;
73264;SDS011;61493;51.008;14.088;2022-08-19T07:29:07;19.42;;;14.93;;
73264;SDS011;61493;51.008;14.088;2022-08-19T07:31:34;19.83;;;14.45;;
73264;SDS011;61493;51.008;14.088;2022-08-19T07:34:09;23.48;;;15.80;;
73264;SDS011;61493;51.008;14.088;2022-08-19T07:36:37;21.42;;;15.63;;
73264;SDS011;61493;51.008;14.088;2022-08-19T07:39:06;22.10;;;16.20;;
73264;SDS011;61493;51.008;14.088;2022-08-19T07:41:37;22.27;;;16.45;;
73264;SDS011;61493;51.008;14.088;2022-08-19T07:44:04;19.25;;;14.23;;
73264;SDS011;61493;51.008;14.088;2022-08-19T07:46:32;20.98;;;15.57;;
73264;SDS011;61493;51.008;14.088;2022-08-19T07:48:59;21.95;;;14.80;;
73264;SDS011;61493;51.008;14.088;2022-08-19T07:51:25;21.00;;;15.63;;
73264;SDS011;61493;51.008;14.088;2022-08-19T07:53:52;18.00;;;13.68;;
73264;SDS011;61493;51.008;14.088;2022-08-19T07:56:19;18.83;;;14.30;;
73264;SDS011;61493;51.008;14.088;2022-08-19T07:58:45;20.10;;;14.70;;
73264;SDS011;61493;51.008;14.088;2022-08-19T08:01:13;18.88;;;13.70;;
73264;SDS011;61493;51.008;14.088;2022-08-19T08:03:43;18.92;;;13.55;;
73264;SDS011;61493;51.008;14.088;2022-08-19T08:06:28;17.45;;;12.63;;
73264;SDS011;61493;51.008;14.088;2022-08-19T08:09:12;17.02;;;12.00;;
73264;SDS011;61493;51.008;14.088;2022-08-19T08:11:43;14.15;;;10.85;;
73264;SDS011;61493;51.008;14.088;2022-08-19T08:14:14;15.77;;;11.90;;
73264;SDS011;61493;51.008;14.088;2022-08-19T08:16:40;15.82;;;11.70;;
73264;SDS011;61493;51.008;14.088;2022-08-19T08:19:10;16.88;;;12.82;;
73264;SDS011;61493;51.008;14.088;2022-08-19T08:21:37;17.13;;;13.60;;
73264;SDS011;61493;51.008;14.088;2022-08-19T08:24:03;18.60;;;12.05;;
73264;SDS011;61493;51.008;14.088;2022-08-19T08:26:29;14.80;;;11.30;;
73264;SDS011;61493;51.008;14.088;2022-08-19T08:28:54;14.77;;;11.70;;
73264;SDS011;61493;51.008;14.088;2022-08-19T08:31:19;17.13;;;12.00;;
73264;SDS011;61493;51.008;14.088;2022-08-19T08:33:45;15.68;;;11.65;;
73264;SDS011;61493;51.008;14.088;2022-08-19T08:36:11;16.08;;;12.43;;
73264;SDS011;61493;51.008;14.088;2022-08-19T08:38:41;14.52;;;10.80;;
73264;SDS011;61493;51.008;14.088;2022-08-19T08:43:53;11.90;;;8.73;;
73264;SDS011;61493;51.008;14.088;2022-08-19T08:49:56;14.15;;;11.55;;
73264;SDS011;61493;51.008;14.088;2022-08-19T08:52:22;13.75;;;10.48;;
73264;SDS011;61493;51.008;14.088;2022-08-19T08:54:52;15.13;;;11.70;;
73264;SDS011;61493;51.008;14.088;2022-08-19T08:57:22;14.48;;;11.60;;
73264;SDS011;61493;51.008;14.088;2022-08-19T08:59:48;14.50;;;11.52;;
73264;SDS011;61493;51.008;14.088;2022-08-19T09:02:18;15.75;;;10.23;;
73264;SDS011;61493;51.008;14.088;2022-08-19T09:04:45;14.05;;;10.05;;
73264;SDS011;61493;51.008;14.088;2022-08-19T09:10:22;12.75;;;10.45;;
73264;SDS011;61493;51.008;14.088;2022-08-19T09:13:02;24.48;;;21.75;;
73264;SDS011;61493;51.008;14.088;2022-08-19T09:15:34;16.00;;;11.52;;
73264;SDS011;61493;51.008;14.088;2022-08-19T09:18:05;17.90;;;13.25;;
73264;SDS011;61493;51.008;14.088;2022-08-19T09:20:31;15.60;;;11.32;;
73264;SDS011;61493;51.008;14.088;2022-08-19T09:22:57;14.00;;;10.63;;
73264;SDS011;61493;51.008;14.088;2022-08-19T09:25:23;16.45;;;11.60;;
73264;SDS011;61493;51.008;14.088;2022-08-19T09:27:49;19.35;;;14.10;;
73264;SDS011;61493;51.008;14.088;2022-08-19T09:30:18;17.30;;;12.30;;
73264;SDS011;61493;51.008;14.088;2022-08-19T09:32:46;16.35;;;12.18;;
73264;SDS011;61493;51.008;14.088;2022-08-19T09:35:13;18.73;;;13.52;;
73264;SDS011;61493;51.008;14.088;2022-08-19T09:37:39;16.77;;;12.18;;
73264;SDS011;61493;51.008;14.088;2022-08-19T09:40:05;16.85;;;11.30;;
73264;SDS011;61493;51.008;14.088;2022-08-19T09:42:32;15.75;;;11.25;;
73264;SDS011;61493;51.008;14.088;2022-08-19T09:44:58;19.60;;;13.10;;
73264;SDS011;61493;51.008;14.088;2022-08-19T09:47:24;16.10;;;13.07;;
73264;SDS011;61493;51.008;14.088;2022-08-19T09:49:49;18.50;;;13.38;;
73264;SDS011;61493;51.008;14.088;2022-08-19T09:52:15;19.08;;;12.38;;
73264;SDS011;61493;51.008;14.088;2022-08-19T09:54:41;15.65;;;11.98;;
73264;SDS011;61493;51.008;14.088;2022-08-19T09:57:06;17.17;;;12.15;;
73264;SDS011;61493;51.008;14.088;2022-08-19T09:59:31;16.20;;;11.77;;
73264;SDS011;61493;51.008;14.088;2022-08-19T10:01:57;18.45;;;11.98;;
73264;SDS011;61493;51.008;14.088;2022-08-19T10:04:22;19.10;;;12.32;;
73264;SDS011;61493;51.008;14.088;2022-08-19T10:06:48;17.80;;;13.00;;
73264;SDS011;61493;51.008;14.088;2022-08-19T10:09:16;16.13;;;12.70;;
73264;SDS011;61493;51.008;14.088;2022-08-19T10:11:43;18.00;;;12.30;;
73264;SDS011;61493;51.008;14.088;2022-08-19T10:14:14;15.13;;;12.07;;
73264;SDS011;61493;51.008;14.088;2022-08-19T10:16:41;15.27;;;11.57;;
73264;SDS011;61493;51.008;14.088;2022-08-19T10:19:07;17.55;;;12.32;;
73264;SDS011;61493;51.008;14.088;2022-08-19T10:21:34;15.90;;;11.80;;
73264;SDS011;61493;51.008;14.088;2022-08-19T10:24:02;15.20;;;12.23;;
73264;SDS011;61493;51.008;14.088;2022-08-19T10:26:30;18.75;;;12.43;;
73264;SDS011;61493;51.008;14.088;2022-08-19T10:28:59;15.30;;;12.32;;
73264;SDS011;61493;51.008;14.088;2022-08-19T10:31:26;14.30;;;11.90;;
73264;SDS011;61493;51.008;14.088;2022-08-19T10:33:53;18.90;;;13.10;;
73264;SDS011;61493;51.008;14.088;2022-08-19T10:36:25;17.17;;;13.65;;
73264;SDS011;61493;51.008;14.088;2022-08-19T10:38:54;15.30;;;12.38;;
73264;SDS011;61493;51.008;14.088;2022-08-19T10:41:24;16.73;;;12.13;;
73264;SDS011;61493;51.008;14.088;2022-08-19T10:43:52;18.85;;;13.65;;
73264;SDS011;61493;51.008;14.088;2022-08-19T10:46:19;16.25;;;11.80;;
73264;SDS011;61493;51.008;14.088;2022-08-19T10:48:47;17.92;;;12.05;;
73264;SDS011;61493;51.008;14.088;2022-08-19T10:51:13;16.20;;;12.15;;
73264;SDS011;61493;51.008;14.088;2022-08-19T10:53:58;16.23;;;12.57;;
73264;SDS011;61493;51.008;14.088;2022-08-19T10:56:24;15.07;;;11.63;;
73264;SDS011;61493;51.008;14.088;2022-08-19T10:59:09;14.82;;;11.20;;
73264;SDS011;61493;51.008;14.088;2022-08-19T11:01:35;15.32;;;11.77;;
73264;SDS011;61493;51.008;14.088;2022-08-19T11:04:01;12.73;;;10.68;;
73264;SDS011;61493;51.008;14.088;2022-08-19T11:06:29;15.70;;;12.40;;
73264;SDS011;61493;51.008;14.088;2022-08-19T11:08:56;15.68;;;11.48;;
73264;SDS011;61493;51.008;14.088;2022-08-19T11:11:22;13.77;;;10.38;;
73264;SDS011;61493;51.008;14.088;2022-08-19T11:13:48;14.77;;;11.88;;
73264;SDS011;61493;51.008;14.088;2022-08-19T11:16:16;16.13;;;11.65;;
73264;SDS011;61493;51.008;14.088;2022-08-19T11:18:44;15.10;;;12.00;;
73264;SDS011;61493;51.008;14.088;2022-08-19T11:21:17;15.07;;;12.10;;
73264;SDS011;61493;51.008;14.088;2022-08-19T11:23:47;15.80;;;12.13;;
73264;SDS011;61493;51.008;14.088;2022-08-19T11:26:14;16.63;;;11.93;;
73264;SDS011;61493;51.008;14.088;2022-08-19T11:28:40;18.38;;;13.10;;
73264;SDS011;61493;51.008;14.088;2022-08-19T11:31:14;13.60;;;11.48;;
73264;SDS011;61493;51.008;14.088;2022-08-19T11:33:43;13.98;;;11.07;;
73264;SDS011;61493;51.008;14.088;2022-08-19T11:36:10;15.80;;;11.85;;
73264;SDS011;61493;51.008;14.088;2022-08-19T11:38:36;14.32;;;11.15;;
73264;SDS011;61493;51.008;14.088;2022-08-19T11:41:03;15.13;;;10.98;;
73264;SDS011;61493;51.008;14.088;2022-08-19T11:43:31;16.08;;;11.27;;
73264;SDS011;61493;51.008;14.088;2022-08-19T11:45:57;14.48;;;10.95;;
73264;SDS011;61493;51.008;14.088;2022-08-19T11:48:23;14.00;;;11.27;;
73264;SDS011;61493;51.008;14.088;2022-08-19T11:50:49;14.05;;;10.73;;
73264;SDS011;61493;51.008;14.088;2022-08-19T11:53:15;15.10;;;11.07;;
73264;SDS011;61493;51.008;14.088;2022-08-19T11:55:43;13.48;;;10.68;;
73264;SDS011;61493;51.008;14.088;2022-08-19T11:58:09;12.45;;;10.00;;
73264;SDS011;61493;51.008;14.088;2022-08-19T12:00:35;12.88;;;8.70;;
73264;SDS011;61493;51.008;14.088;2022-08-19T12:03:01;12.55;;;10.00;;
73264;SDS011;61493;51.008;14.088;2022-08-19T12:05:27;14.80;;;10.70;;
73264;SDS011;61493;51.008;14.088;2022-08-19T12:07:52;14.23;;;11.15;;
73264;SDS011;61493;51.008;14.088;2022-08-19T12:10:19;14.02;;;9.93;;
73264;SDS011;61493;51.008;14.088;2022-08-19T12:12:45;13.23;;;10.77;;
73264;SDS011;61493;51.008;14.088;2022-08-19T12:15:10;13.20;;;9.60;;
73264;SDS011;61493;51.008;14.088;2022-08-19T12:17:37;14.68;;;11.52;;
73264;SDS011;61493;51.008;14.088;2022-08-19T12:20:03;15.73;;;12.90;;
73264;SDS011;61493;51.008;14.088;2022-08-19T12:22:29;15.57;;;11.73;;
73264;SDS011;61493;51.008;14.088;2022-08-19T12:24:55;17.25;;;12.68;;
73264;SDS011;61493;51.008;14.088;2022-08-19T12:27:20;15.80;;;11.95;;
73264;SDS011;61493;51.008;14.088;2022-08-19T12:29:49;16.40;;;12.27;;
73264;SDS011;61493;51.008;14.088;2022-08-19T12:32:15;15.52;;;12.63;;
73264;SDS011;61493;51.008;14.088;2022-08-19T12:34:41;15.48;;;11.13;;
73264;SDS011;61493;51.008;14.088;2022-08-19T12:37:07;14.77;;;10.70;;
73264;SDS011;61493;51.008;14.088;2022-08-19T12:39:33;13.52;;;9.63;;
73264;SDS011;61493;51.008;14.088;2022-08-19T12:42:00;14.15;;;10.65;;
73264;SDS011;61493;51.008;14.088;2022-08-19T12:44:26;14.30;;;10.10;;
73264;SDS011;61493;51.008;14.088;2022-08-19T12:46:51;11.20;;;8.68;;
73264;SDS011;61493;51.008;14.088;2022-08-19T12:49:16;10.73;;;8.32;;
73264;SDS011;61493;51.008;14.088;2022-08-19T12:51:42;10.95;;;8.90;;
73264;SDS011;61493;51.008;14.088;2022-08-19T12:54:07;9.90;;;7.75;;
73264;SDS011;61493;51.008;14.088;2022-08-19T12:56:33;11.82;;;7.97;;
73264;SDS011;61493;51.008;14.088;2022-08-19T12:59:00;9.43;;;7.07;;
73264;SDS011;61493;51.008;14.088;2022-08-19T13:01:26;9.65;;;7.55;;
73264;SDS011;61493;51.008;14.088;2022-08-19T13:03:57;10.10;;;7.53;;
73264;SDS011;61493;51.008;14.088;2022-08-19T13:06:22;10.85;;;8.25;;
73264;SDS011;61493;51.008;14.088;2022-08-19T13:08:48;10.50;;;7.40;;
73264;SDS011;61493;51.008;14.088;2022-08-19T13:11:14;9.50;;;7.90;;
73264;SDS011;61493;51.008;14.088;2022-08-19T13:13:42;10.50;;;8.38;;
73264;SDS011;61493;51.008;14.088;2022-08-19T13:16:10;11.52;;;8.90;;
73264;SDS011;61493;51.008;14.088;2022-08-19T13:18:37;12.95;;;10.50;;
73264;SDS011;61493;51.008;14.088;2022-08-19T13:21:06;12.00;;;8.45;;
73264;SDS011;61493;51.008;14.088;2022-08-19T13:23:34;12.35;;;9.52;;
73264;SDS011;61493;51.008;14.088;2022-08-19T13:26:01;12.65;;;8.77;;
73264;SDS011;61493;51.008;14.088;2022-08-19T13:28:29;12.73;;;9.63;;
73264;SDS011;61493;51.008;14.088;2022-08-19T13:31:18;11.55;;;9.52;;
73264;SDS011;61493;51.008;14.088;2022-08-19T13:34:03;12.20;;;10.45;;
73264;SDS011;61493;51.008;14.088;2022-08-19T13:36:30;12.40;;;10.00;;
73264;SDS011;61493;51.008;14.088;2022-08-19T13:38:56;14.13;;;11.07;;
73264;SDS011;61493;51.008;14.088;2022-08-19T13:41:22;17.52;;;12.25;;
73264;SDS011;61493;51.008;14.088;2022-08-19T13:43:48;14.52;;;12.10;;
73264;SDS011;61493;51.008;14.088;2022-08-19T13:46:14;14.40;;;11.80;;
73264;SDS011;61493;51.008;14.088;2022-08-19T13:48:40;16.45;;;12.57;;
73264;SDS011;61493;51.008;14.088;2022-08-19T13:51:06;16.23;;;12.45;;
73264;SDS011;61493;51.008;14.088;2022-08-19T13:53:35;16.52;;;12.82;;
73264;SDS011;61493;51.008;14.088;2022-08-19T13:56:07;18.45;;;13.00;;
73264;SDS011;61493;51.008;14.088;2022-08-19T13:58:34;17.10;;;12.35;;
73264;SDS011;61493;51.008;14.088;2022-08-19T14:00:59;15.05;;;11.70;;
73264;SDS011;61493;51.008;14.088;2022-08-19T14:03:26;17.05;;;12.25;;
73264;SDS011;61493;51.008;14.088;2022-08-19T14:05:52;17.02;;;13.85;;
73264;SDS011;61493;51.008;14.088;2022-08-19T14:08:18;16.77;;;13.05;;
73264;SDS011;61493;51.008;14.088;2022-08-19T14:10:44;16.42;;;12.90;;
73264;SDS011;61493;51.008;14.088;2022-08-19T14:13:12;23.48;;;13.65;;
73264;SDS011;61493;51.008;14.088;2022-08-19T14:15:39;18.98;;;13.93;;
73264;SDS011;61493;51.008;14.088;2022-08-19T14:18:05;18.40;;;12.93;;
73264;SDS011;61493;51.008;14.088;2022-08-19T14:20:33;16.45;;;12.75;;
73264;SDS011;61493;51.008;14.088;2022-08-19T14:22:59;17.55;;;13.95;;